sensor_id;sensor_type;location;lat;lon;timestamp;temperature;humidity
38456;DHT22;24237;50.106;20.014;2024-03-17T00:01:05;12.20;99.90
38456;DHT22;24237;50.106;20.014;2024-03-17T00:03:31;12.10;99.90
38456;DHT22;24237;50.106;20.014;2024-03-17T00:05:57;12.30;99.90
38456;DHT22;24237;50.106;20.014;2024-03-17T00:08:24;12.40;99.90
38456;DHT22;24237;50.106;20.014;2024-03-17T00:10:50;12.40;99.90
38456;DHT22;24237;50.106;20.014;2024-03-17T00:13:17;12.30;99.90
38456;DHT22;24237;50.106;20.014;2024-03-17T00:15:42;12.20;99.90
38456;DHT22;24237;50.106;20.014;2024-03-17T00:18:09;12.00;99.90
38456;DHT22;24237;50.106;20.014;2024-03-17T00:20:36;12.10;99.90
38456;DHT22;24237;50.106;20.014;2024-03-17T00:23:02;12.10;99.90
38456;DHT22;24237;50.106;20.014;2024-03-17T00:25:28;12.10;99.90
38456;DHT22;24237;50.106;20.014;2024-03-17T00:27:54;12.10;99.90
38456;DHT22;24237;50.106;20.014;2024-03-17T00:30:23;12.10;99.90
38456;DHT22;24237;50.106;20.014;2024-03-17T00:32:48;12.10;99.90
38456;DHT22;24237;50.106;20.014;2024-03-17T00:35:14;12.30;99.90
38456;DHT22;24237;50.106;20.014;2024-03-17T00:37:49;12.20;99.90
38456;DHT22;24237;50.106;20.014;2024-03-17T00:40:15;11.90;99.90
38456;DHT22;24237;50.106;20.014;2024-03-17T00:42:44;11.60;99.90
38456;DHT22;24237;50.106;20.014;2024-03-17T00:45:10;10.60;99.90
38456;DHT22;24237;50.106;20.014;2024-03-17T00:47:36;10.20;1.00
38456;DHT22;24237;50.106;20.014;2024-03-17T00:50:03;10.10;1.00
38456;DHT22;24237;50.106;20.014;2024-03-17T00:52:29;9.80;1.00
38456;DHT22;24237;50.106;20.014;2024-03-17T00:54:55;9.70;1.00
38456;DHT22;24237;50.106;20.014;2024-03-17T00:57:21;9.50;67.80
38456;DHT22;24237;50.106;20.014;2024-03-17T00:59:46;9.40;81.10
38456;DHT22;24237;50.106;20.014;2024-03-17T01:02:12;9.00;99.90
38456;DHT22;24237;50.106;20.014;2024-03-17T01:04:39;8.90;99.90
38456;DHT22;24237;50.106;20.014;2024-03-17T01:07:05;8.80;99.90
38456;DHT22;24237;50.106;20.014;2024-03-17T01:09:31;8.70;99.90
38456;DHT22;24237;50.106;20.014;2024-03-17T01:11:56;8.50;99.90
38456;DHT22;24237;50.106;20.014;2024-03-17T01:14:22;8.40;99.90
38456;DHT22;24237;50.106;20.014;2024-03-17T01:16:48;8.50;99.90
38456;DHT22;24237;50.106;20.014;2024-03-17T01:19:15;8.50;99.90
38456;DHT22;24237;50.106;20.014;2024-03-17T01:21:41;8.70;99.90
38456;DHT22;24237;50.106;20.014;2024-03-17T01:24:07;8.90;99.90
38456;DHT22;24237;50.106;20.014;2024-03-17T01:26:33;8.90;53.60
38456;DHT22;24237;50.106;20.014;2024-03-17T01:28:58;8.80;58.80
38456;DHT22;24237;50.106;20.014;2024-03-17T01:31:24;8.60;58.90
38456;DHT22;24237;50.106;20.014;2024-03-17T01:33:50;8.70;64.10
38456;DHT22;24237;50.106;20.014;2024-03-17T01:36:16;8.80;35.60
38456;DHT22;24237;50.106;20.014;2024-03-17T01:38:41;8.80;43.30
38456;DHT22;24237;50.106;20.014;2024-03-17T01:41:07;8.90;50.30
38456;DHT22;24237;50.106;20.014;2024-03-17T01:43:33;8.90;41.20
38456;DHT22;24237;50.106;20.014;2024-03-17T01:45:59;8.70;84.20
38456;DHT22;24237;50.106;20.014;2024-03-17T01:48:25;8.60;89.90
38456;DHT22;24237;50.106;20.014;2024-03-17T01:50:53;8.60;27.10
38456;DHT22;24237;50.106;20.014;2024-03-17T01:53:22;8.60;16.70
38456;DHT22;24237;50.106;20.014;2024-03-17T01:55:49;8.50;1.00
38456;DHT22;24237;50.106;20.014;2024-03-17T01:58:15;8.40;1.00
38456;DHT22;24237;50.106;20.014;2024-03-17T02:00:42;8.30;1.00
38456;DHT22;24237;50.106;20.014;2024-03-17T02:03:08;8.20;1.00
38456;DHT22;24237;50.106;20.014;2024-03-17T02:05:35;8.10;1.00
38456;DHT22;24237;50.106;20.014;2024-03-17T02:08:06;8.10;1.00
38456;DHT22;24237;50.106;20.014;2024-03-17T02:10:34;8.10;1.00
38456;DHT22;24237;50.106;20.014;2024-03-17T02:13:01;8.20;99.90
38456;DHT22;24237;50.106;20.014;2024-03-17T02:15:28;8.20;99.90
38456;DHT22;24237;50.106;20.014;2024-03-17T02:17:54;8.30;99.90
38456;DHT22;24237;50.106;20.014;2024-03-17T02:20:21;8.20;99.90
38456;DHT22;24237;50.106;20.014;2024-03-17T02:22:50;8.20;99.90
38456;DHT22;24237;50.106;20.014;2024-03-17T02:25:16;8.20;99.90
38456;DHT22;24237;50.106;20.014;2024-03-17T02:27:41;8.40;99.90
38456;DHT22;24237;50.106;20.014;2024-03-17T02:30:07;8.50;1.00
38456;DHT22;24237;50.106;20.014;2024-03-17T02:32:36;8.60;99.90
38456;DHT22;24237;50.106;20.014;2024-03-17T02:35:02;8.60;75.50
38456;DHT22;24237;50.106;20.014;2024-03-17T02:37:28;8.60;99.90
38456;DHT22;24237;50.106;20.014;2024-03-17T02:39:53;8.70;92.50
38456;DHT22;24237;50.106;20.014;2024-03-17T02:42:19;8.80;1.00
38456;DHT22;24237;50.106;20.014;2024-03-17T02:44:45;8.90;99.90
38456;DHT22;24237;50.106;20.014;2024-03-17T02:47:11;9.00;99.90
38456;DHT22;24237;50.106;20.014;2024-03-17T02:49:40;9.30;99.90
38456;DHT22;24237;50.106;20.014;2024-03-17T02:52:09;9.30;1.00
38456;DHT22;24237;50.106;20.014;2024-03-17T02:54:36;9.20;1.00
38456;DHT22;24237;50.106;20.014;2024-03-17T02:57:05;9.10;99.90
38456;DHT22;24237;50.106;20.014;2024-03-17T02:59:32;9.10;99.90
38456;DHT22;24237;50.106;20.014;2024-03-17T03:01:59;9.20;99.90
38456;DHT22;24237;50.106;20.014;2024-03-17T03:04:25;9.30;99.90
38456;DHT22;24237;50.106;20.014;2024-03-17T03:06:51;9.30;99.90
38456;DHT22;24237;50.106;20.014;2024-03-17T03:09:17;9.50;99.90
38456;DHT22;24237;50.106;20.014;2024-03-17T03:11:47;9.60;99.90
38456;DHT22;24237;50.106;20.014;2024-03-17T03:14:13;9.60;99.90
38456;DHT22;24237;50.106;20.014;2024-03-17T03:16:39;9.50;1.00
38456;DHT22;24237;50.106;20.014;2024-03-17T03:19:04;9.40;43.70
38456;DHT22;24237;50.106;20.014;2024-03-17T03:21:32;9.30;37.40
38456;DHT22;24237;50.106;20.014;2024-03-17T03:23:58;9.40;1.00
38456;DHT22;24237;50.106;20.014;2024-03-17T03:26:24;9.50;1.00
38456;DHT22;24237;50.106;20.014;2024-03-17T03:28:50;9.20;1.00
38456;DHT22;24237;50.106;20.014;2024-03-17T03:31:16;9.20;99.90
38456;DHT22;24237;50.106;20.014;2024-03-17T03:33:43;9.10;99.90
38456;DHT22;24237;50.106;20.014;2024-03-17T03:36:14;9.20;5.40
38456;DHT22;24237;50.106;20.014;2024-03-17T03:38:40;9.30;99.90
38456;DHT22;24237;50.106;20.014;2024-03-17T03:41:12;9.00;99.90
38456;DHT22;24237;50.106;20.014;2024-03-17T03:43:38;9.10;99.90
38456;DHT22;24237;50.106;20.014;2024-03-17T03:46:05;8.90;1.00
38456;DHT22;24237;50.106;20.014;2024-03-17T03:48:31;9.20;99.90
38456;DHT22;24237;50.106;20.014;2024-03-17T03:50:57;9.20;99.90
38456;DHT22;24237;50.106;20.014;2024-03-17T03:53:24;9.10;99.90
38456;DHT22;24237;50.106;20.014;2024-03-17T03:55:49;9.10;99.90
38456;DHT22;24237;50.106;20.014;2024-03-17T03:58:15;9.10;99.90
38456;DHT22;24237;50.106;20.014;2024-03-17T04:00:41;9.10;1.00
38456;DHT22;24237;50.106;20.014;2024-03-17T04:03:07;9.10;99.90
38456;DHT22;24237;50.106;20.014;2024-03-17T04:05:33;8.90;1.00
38456;DHT22;24237;50.106;20.014;2024-03-17T04:08:00;9.00;99.90
38456;DHT22;24237;50.106;20.014;2024-03-17T04:10:25;8.90;99.90
38456;DHT22;24237;50.106;20.014;2024-03-17T04:12:52;8.80;63.60
38456;DHT22;24237;50.106;20.014;2024-03-17T04:15:18;9.10;1.00
38456;DHT22;24237;50.106;20.014;2024-03-17T04:17:44;9.10;1.00
38456;DHT22;24237;50.106;20.014;2024-03-17T04:20:10;8.80;99.90
38456;DHT22;24237;50.106;20.014;2024-03-17T04:22:39;8.90;99.90
38456;DHT22;24237;50.106;20.014;2024-03-17T04:25:06;9.20;1.00
38456;DHT22;24237;50.106;20.014;2024-03-17T04:27:32;9.00;99.90
38456;DHT22;24237;50.106;20.014;2024-03-17T04:29:58;8.80;99.90
38456;DHT22;24237;50.106;20.014;2024-03-17T04:32:25;8.90;99.90
38456;DHT22;24237;50.106;20.014;2024-03-17T04:34:54;9.00;99.90
38456;DHT22;24237;50.106;20.014;2024-03-17T04:37:19;9.00;19.50
38456;DHT22;24237;50.106;20.014;2024-03-17T04:39:46;8.60;99.90
38456;DHT22;24237;50.106;20.014;2024-03-17T04:42:13;8.50;1.00
38456;DHT22;24237;50.106;20.014;2024-03-17T04:44:46;8.30;1.00
38456;DHT22;24237;50.106;20.014;2024-03-17T04:47:12;8.20;1.00
38456;DHT22;24237;50.106;20.014;2024-03-17T04:49:42;8.20;99.90
38456;DHT22;24237;50.106;20.014;2024-03-17T04:52:09;8.40;99.90
38456;DHT22;24237;50.106;20.014;2024-03-17T04:54:36;8.10;99.90
38456;DHT22;24237;50.106;20.014;2024-03-17T04:57:02;8.20;1.00
38456;DHT22;24237;50.106;20.014;2024-03-17T04:59:28;8.20;99.90
38456;DHT22;24237;50.106;20.014;2024-03-17T05:01:54;8.00;99.90
38456;DHT22;24237;50.106;20.014;2024-03-17T05:04:19;8.00;99.90
38456;DHT22;24237;50.106;20.014;2024-03-17T05:06:45;8.00;99.90
38456;DHT22;24237;50.106;20.014;2024-03-17T05:09:18;7.80;1.00
38456;DHT22;24237;50.106;20.014;2024-03-17T05:11:44;7.90;1.00
38456;DHT22;24237;50.106;20.014;2024-03-17T05:14:10;8.10;99.90
38456;DHT22;24237;50.106;20.014;2024-03-17T05:16:36;8.00;1.00
38456;DHT22;24237;50.106;20.014;2024-03-17T05:19:02;7.70;99.90
38456;DHT22;24237;50.106;20.014;2024-03-17T05:21:29;7.70;9.20
38456;DHT22;24237;50.106;20.014;2024-03-17T05:23:56;7.50;99.90
38456;DHT22;24237;50.106;20.014;2024-03-17T05:26:25;7.60;43.90
38456;DHT22;24237;50.106;20.014;2024-03-17T05:28:51;7.80;99.90
38456;DHT22;24237;50.106;20.014;2024-03-17T05:31:16;7.70;99.90
38456;DHT22;24237;50.106;20.014;2024-03-17T05:33:44;7.60;1.00
38456;DHT22;24237;50.106;20.014;2024-03-17T05:36:09;7.70;1.00
38456;DHT22;24237;50.106;20.014;2024-03-17T05:38:35;7.60;99.90
38456;DHT22;24237;50.106;20.014;2024-03-17T05:41:05;7.90;1.00
38456;DHT22;24237;50.106;20.014;2024-03-17T05:43:33;8.00;1.00
38456;DHT22;24237;50.106;20.014;2024-03-17T05:46:00;8.10;99.90
38456;DHT22;24237;50.106;20.014;2024-03-17T05:48:37;8.10;99.90
38456;DHT22;24237;50.106;20.014;2024-03-17T05:51:12;8.10;99.90
38456;DHT22;24237;50.106;20.014;2024-03-17T05:53:39;7.90;99.90
38456;DHT22;24237;50.106;20.014;2024-03-17T05:56:06;7.70;99.90
38456;DHT22;24237;50.106;20.014;2024-03-17T05:58:33;7.80;99.90
38456;DHT22;24237;50.106;20.014;2024-03-17T06:01:02;8.10;99.90
38456;DHT22;24237;50.106;20.014;2024-03-17T06:03:28;8.10;99.90
38456;DHT22;24237;50.106;20.014;2024-03-17T06:05:53;8.10;4.00
38456;DHT22;24237;50.106;20.014;2024-03-17T06:08:19;7.90;60.60
38456;DHT22;24237;50.106;20.014;2024-03-17T06:10:46;7.90;22.90
38456;DHT22;24237;50.106;20.014;2024-03-17T06:13:13;7.80;56.80
38456;DHT22;24237;50.106;20.014;2024-03-17T06:15:40;7.80;1.00
38456;DHT22;24237;50.106;20.014;2024-03-17T06:18:07;7.30;1.00
38456;DHT22;24237;50.106;20.014;2024-03-17T06:20:35;7.30;5.60
38456;DHT22;24237;50.106;20.014;2024-03-17T06:23:00;7.30;2.40
38456;DHT22;24237;50.106;20.014;2024-03-17T06:25:26;7.40;1.00
38456;DHT22;24237;50.106;20.014;2024-03-17T06:27:53;7.50;1.00
38456;DHT22;24237;50.106;20.014;2024-03-17T06:30:19;7.60;1.00
38456;DHT22;24237;50.106;20.014;2024-03-17T06:32:46;7.40;1.00
38456;DHT22;24237;50.106;20.014;2024-03-17T06:35:13;7.70;99.90
38456;DHT22;24237;50.106;20.014;2024-03-17T06:37:41;7.90;95.30
38456;DHT22;24237;50.106;20.014;2024-03-17T06:40:09;7.80;97.10
38456;DHT22;24237;50.106;20.014;2024-03-17T06:42:37;7.80;1.00
38456;DHT22;24237;50.106;20.014;2024-03-17T06:45:04;7.80;1.00
38456;DHT22;24237;50.106;20.014;2024-03-17T06:47:29;7.70;1.00
38456;DHT22;24237;50.106;20.014;2024-03-17T06:49:55;7.80;1.00
38456;DHT22;24237;50.106;20.014;2024-03-17T06:52:21;7.60;44.20
38456;DHT22;24237;50.106;20.014;2024-03-17T06:54:47;7.70;1.00
38456;DHT22;24237;50.106;20.014;2024-03-17T06:57:15;7.40;1.00
38456;DHT22;24237;50.106;20.014;2024-03-17T06:59:41;7.40;1.00
38456;DHT22;24237;50.106;20.014;2024-03-17T07:02:07;7.50;1.00
38456;DHT22;24237;50.106;20.014;2024-03-17T07:04:32;7.60;1.00
38456;DHT22;24237;50.106;20.014;2024-03-17T07:07:00;7.40;1.00
38456;DHT22;24237;50.106;20.014;2024-03-17T07:09:26;7.70;1.00
38456;DHT22;24237;50.106;20.014;2024-03-17T07:11:52;7.90;1.00
38456;DHT22;24237;50.106;20.014;2024-03-17T07:14:18;7.90;1.00
38456;DHT22;24237;50.106;20.014;2024-03-17T07:16:44;8.20;1.00
38456;DHT22;24237;50.106;20.014;2024-03-17T07:19:09;8.30;99.90
38456;DHT22;24237;50.106;20.014;2024-03-17T07:21:35;7.90;99.90
38456;DHT22;24237;50.106;20.014;2024-03-17T07:24:01;8.00;99.90
38456;DHT22;24237;50.106;20.014;2024-03-17T07:26:30;7.90;99.90
38456;DHT22;24237;50.106;20.014;2024-03-17T07:28:56;8.00;99.90
38456;DHT22;24237;50.106;20.014;2024-03-17T07:31:21;7.70;99.90
38456;DHT22;24237;50.106;20.014;2024-03-17T07:33:47;7.80;99.90
38456;DHT22;24237;50.106;20.014;2024-03-17T07:36:13;8.20;99.90
38456;DHT22;24237;50.106;20.014;2024-03-17T07:38:39;8.30;99.90
38456;DHT22;24237;50.106;20.014;2024-03-17T07:41:07;8.50;99.90
38456;DHT22;24237;50.106;20.014;2024-03-17T07:43:33;8.60;99.90
38456;DHT22;24237;50.106;20.014;2024-03-17T07:48:25;8.40;1.00
38456;DHT22;24237;50.106;20.014;2024-03-17T07:51:01;8.30;25.20
38456;DHT22;24237;50.106;20.014;2024-03-17T07:53:34;8.30;1.00
38456;DHT22;24237;50.106;20.014;2024-03-17T07:56:02;8.00;1.00
38456;DHT22;24237;50.106;20.014;2024-03-17T07:58:30;8.00;27.90
38456;DHT22;24237;50.106;20.014;2024-03-17T08:00:59;8.30;1.00
38456;DHT22;24237;50.106;20.014;2024-03-17T08:03:25;8.10;1.00
38456;DHT22;24237;50.106;20.014;2024-03-17T08:05:51;8.40;1.00
38456;DHT22;24237;50.106;20.014;2024-03-17T08:08:18;8.60;1.00
38456;DHT22;24237;50.106;20.014;2024-03-17T08:10:44;8.40;99.90
38456;DHT22;24237;50.106;20.014;2024-03-17T08:13:10;8.20;99.90
38456;DHT22;24237;50.106;20.014;2024-03-17T08:15:36;8.30;99.90
38456;DHT22;24237;50.106;20.014;2024-03-17T08:18:02;8.40;99.90
38456;DHT22;24237;50.106;20.014;2024-03-17T08:20:29;8.30;99.90
38456;DHT22;24237;50.106;20.014;2024-03-17T08:22:55;8.00;99.90
38456;DHT22;24237;50.106;20.014;2024-03-17T08:25:20;7.80;99.90
38456;DHT22;24237;50.106;20.014;2024-03-17T08:27:46;8.20;99.90
38456;DHT22;24237;50.106;20.014;2024-03-17T08:30:12;8.60;99.90
38456;DHT22;24237;50.106;20.014;2024-03-17T08:32:39;8.60;99.90
38456;DHT22;24237;50.106;20.014;2024-03-17T08:35:05;8.60;99.90
38456;DHT22;24237;50.106;20.014;2024-03-17T08:37:31;8.70;99.90
38456;DHT22;24237;50.106;20.014;2024-03-17T08:39:57;9.10;99.90
38456;DHT22;24237;50.106;20.014;2024-03-17T08:42:23;9.10;99.90
38456;DHT22;24237;50.106;20.014;2024-03-17T08:44:48;9.20;99.90
38456;DHT22;24237;50.106;20.014;2024-03-17T08:47:14;9.20;99.90
38456;DHT22;24237;50.106;20.014;2024-03-17T08:49:40;9.30;99.90
38456;DHT22;24237;50.106;20.014;2024-03-17T08:52:05;9.10;99.90
38456;DHT22;24237;50.106;20.014;2024-03-17T08:54:31;9.10;99.90
38456;DHT22;24237;50.106;20.014;2024-03-17T08:56:57;9.00;99.90
38456;DHT22;24237;50.106;20.014;2024-03-17T08:59:22;8.80;99.90
38456;DHT22;24237;50.106;20.014;2024-03-17T09:01:48;8.90;99.90
38456;DHT22;24237;50.106;20.014;2024-03-17T09:04:13;8.80;99.90
38456;DHT22;24237;50.106;20.014;2024-03-17T09:06:39;8.40;99.90
38456;DHT22;24237;50.106;20.014;2024-03-17T09:09:06;8.80;99.90
38456;DHT22;24237;50.106;20.014;2024-03-17T09:11:32;9.00;99.90
38456;DHT22;24237;50.106;20.014;2024-03-17T09:13:57;9.10;99.90
38456;DHT22;24237;50.106;20.014;2024-03-17T09:16:24;9.20;99.90
38456;DHT22;24237;50.106;20.014;2024-03-17T09:18:51;9.50;99.90
38456;DHT22;24237;50.106;20.014;2024-03-17T09:21:17;9.80;99.90
38456;DHT22;24237;50.106;20.014;2024-03-17T09:23:43;9.90;99.90
38456;DHT22;24237;50.106;20.014;2024-03-17T09:26:09;9.50;99.90
38456;DHT22;24237;50.106;20.014;2024-03-17T09:28:37;9.30;99.90
38456;DHT22;24237;50.106;20.014;2024-03-17T09:31:03;9.50;99.90
38456;DHT22;24237;50.106;20.014;2024-03-17T09:33:30;9.70;99.90
38456;DHT22;24237;50.106;20.014;2024-03-17T09:36:01;9.70;80.00
38456;DHT22;24237;50.106;20.014;2024-03-17T09:38:28;9.60;96.40
38456;DHT22;24237;50.106;20.014;2024-03-17T09:40:54;9.50;99.90
38456;DHT22;24237;50.106;20.014;2024-03-17T09:43:25;9.50;99.90
38456;DHT22;24237;50.106;20.014;2024-03-17T09:45:52;9.30;90.50
38456;DHT22;24237;50.106;20.014;2024-03-17T09:48:20;9.30;99.90
38456;DHT22;24237;50.106;20.014;2024-03-17T09:50:53;9.40;78.90
38456;DHT22;24237;50.106;20.014;2024-03-17T09:53:30;9.40;92.50
38456;DHT22;24237;50.106;20.014;2024-03-17T09:55:59;9.30;99.90
38456;DHT22;24237;50.106;20.014;2024-03-17T09:58:24;9.20;99.90
38456;DHT22;24237;50.106;20.014;2024-03-17T10:00:50;9.30;99.90
38456;DHT22;24237;50.106;20.014;2024-03-17T10:03:43;9.20;99.90
38456;DHT22;24237;50.106;20.014;2024-03-17T10:06:13;9.40;99.90
38456;DHT22;24237;50.106;20.014;2024-03-17T10:08:50;9.70;99.90
38456;DHT22;24237;50.106;20.014;2024-03-17T10:11:20;9.60;89.80
38456;DHT22;24237;50.106;20.014;2024-03-17T10:13:59;9.50;99.90
38456;DHT22;24237;50.106;20.014;2024-03-17T10:16:45;9.30;99.90
38456;DHT22;24237;50.106;20.014;2024-03-17T10:19:28;9.70;99.90
38456;DHT22;24237;50.106;20.014;2024-03-17T10:22:01;9.80;99.90
38456;DHT22;24237;50.106;20.014;2024-03-17T10:24:27;9.90;99.90
38456;DHT22;24237;50.106;20.014;2024-03-17T10:26:59;9.50;99.90
38456;DHT22;24237;50.106;20.014;2024-03-17T10:29:30;9.50;99.90
38456;DHT22;24237;50.106;20.014;2024-03-17T10:32:02;10.10;99.90
38456;DHT22;24237;50.106;20.014;2024-03-17T10:34:29;10.60;92.50
38456;DHT22;24237;50.106;20.014;2024-03-17T10:37:26;10.70;93.50
38456;DHT22;24237;50.106;20.014;2024-03-17T10:39:53;11.10;71.80
38456;DHT22;24237;50.106;20.014;2024-03-17T10:42:25;10.70;1.00
38456;DHT22;24237;50.106;20.014;2024-03-17T10:44:54;10.50;1.00
38456;DHT22;24237;50.106;20.014;2024-03-17T10:47:22;10.10;1.00
38456;DHT22;24237;50.106;20.014;2024-03-17T10:49:53;9.70;1.00
38456;DHT22;24237;50.106;20.014;2024-03-17T10:52:20;9.90;1.00
38456;DHT22;24237;50.106;20.014;2024-03-17T10:54:48;10.30;1.00
38456;DHT22;24237;50.106;20.014;2024-03-17T10:59:49;9.50;1.00
38456;DHT22;24237;50.106;20.014;2024-03-17T11:02:22;9.80;1.00
38456;DHT22;24237;50.106;20.014;2024-03-17T11:04:54;10.20;1.00
38456;DHT22;24237;50.106;20.014;2024-03-17T11:07:21;10.00;1.00
38456;DHT22;24237;50.106;20.014;2024-03-17T11:09:48;10.50;1.00
38456;DHT22;24237;50.106;20.014;2024-03-17T11:12:41;10.80;1.00
38456;DHT22;24237;50.106;20.014;2024-03-17T11:20:43;10.40;1.00
38456;DHT22;24237;50.106;20.014;2024-03-17T11:23:09;10.50;99.90
38456;DHT22;24237;50.106;20.014;2024-03-17T11:28:01;10.30;99.90
38456;DHT22;24237;50.106;20.014;2024-03-17T11:30:48;10.30;99.90
38456;DHT22;24237;50.106;20.014;2024-03-17T11:39:08;11.50;99.90
38456;DHT22;24237;50.106;20.014;2024-03-17T11:41:44;11.40;99.90
38456;DHT22;24237;50.106;20.014;2024-03-17T11:49:27;11.70;99.90
38456;DHT22;24237;50.106;20.014;2024-03-17T11:51:54;11.60;99.90
38456;DHT22;24237;50.106;20.014;2024-03-17T11:54:27;11.00;99.90
38456;DHT22;24237;50.106;20.014;2024-03-17T12:00:21;11.50;99.90
38456;DHT22;24237;50.106;20.014;2024-03-17T12:02:49;11.90;99.90
38456;DHT22;24237;50.106;20.014;2024-03-17T12:05:15;12.40;99.90
38456;DHT22;24237;50.106;20.014;2024-03-17T12:07:44;12.40;99.90
38456;DHT22;24237;50.106;20.014;2024-03-17T12:10:13;12.70;99.90
38456;DHT22;24237;50.106;20.014;2024-03-17T12:12:47;12.40;99.90
38456;DHT22;24237;50.106;20.014;2024-03-17T12:15:17;12.20;99.90
38456;DHT22;24237;50.106;20.014;2024-03-17T12:17:44;11.50;99.90
38456;DHT22;24237;50.106;20.014;2024-03-17T12:20:17;11.30;99.90
38456;DHT22;24237;50.106;20.014;2024-03-17T12:22:43;11.90;99.90
38456;DHT22;24237;50.106;20.014;2024-03-17T12:25:19;12.20;99.90
38456;DHT22;24237;50.106;20.014;2024-03-17T12:27:46;13.00;99.90
38456;DHT22;24237;50.106;20.014;2024-03-17T12:30:14;13.60;99.90
38456;DHT22;24237;50.106;20.014;2024-03-17T12:32:40;13.70;99.90
38456;DHT22;24237;50.106;20.014;2024-03-17T12:35:13;13.70;99.90
38456;DHT22;24237;50.106;20.014;2024-03-17T12:37:39;13.30;99.90
38456;DHT22;24237;50.106;20.014;2024-03-17T12:40:18;13.10;99.90
38456;DHT22;24237;50.106;20.014;2024-03-17T12:42:48;12.30;99.90
38456;DHT22;24237;50.106;20.014;2024-03-17T12:45:19;12.40;99.90
38456;DHT22;24237;50.106;20.014;2024-03-17T12:47:47;13.30;99.90
38456;DHT22;24237;50.106;20.014;2024-03-17T12:50:13;13.70;99.90
38456;DHT22;24237;50.106;20.014;2024-03-17T12:53:02;13.40;99.90
38456;DHT22;24237;50.106;20.014;2024-03-17T12:55:27;14.60;99.90
38456;DHT22;24237;50.106;20.014;2024-03-17T12:58:12;15.10;99.90
38456;DHT22;24237;50.106;20.014;2024-03-17T13:01:02;15.40;99.90
38456;DHT22;24237;50.106;20.014;2024-03-17T13:03:29;14.10;99.90
38456;DHT22;24237;50.106;20.014;2024-03-17T13:05:55;12.70;99.90
38456;DHT22;24237;50.106;20.014;2024-03-17T13:08:20;11.80;99.90
38456;DHT22;24237;50.106;20.014;2024-03-17T13:10:46;11.40;99.90
38456;DHT22;24237;50.106;20.014;2024-03-17T13:13:13;12.20;99.90
38456;DHT22;24237;50.106;20.014;2024-03-17T13:15:41;13.50;99.90
38456;DHT22;24237;50.106;20.014;2024-03-17T13:18:07;13.60;99.90
38456;DHT22;24237;50.106;20.014;2024-03-17T13:20:33;13.10;99.70
38456;DHT22;24237;50.106;20.014;2024-03-17T13:23:00;12.90;95.50
38456;DHT22;24237;50.106;20.014;2024-03-17T13:25:27;12.20;98.20
38456;DHT22;24237;50.106;20.014;2024-03-17T13:27:55;11.90;95.00
38456;DHT22;24237;50.106;20.014;2024-03-17T13:30:22;11.80;94.20
38456;DHT22;24237;50.106;20.014;2024-03-17T13:32:49;12.20;98.00
38456;DHT22;24237;50.106;20.014;2024-03-17T13:35:22;13.50;99.90
38456;DHT22;24237;50.106;20.014;2024-03-17T13:37:49;14.60;99.90
38456;DHT22;24237;50.106;20.014;2024-03-17T13:40:16;14.60;99.50
38456;DHT22;24237;50.106;20.014;2024-03-17T13:42:44;14.80;99.90
38456;DHT22;24237;50.106;20.014;2024-03-17T13:45:13;14.50;99.90
38456;DHT22;24237;50.106;20.014;2024-03-17T13:47:40;13.90;93.80
38456;DHT22;24237;50.106;20.014;2024-03-17T13:50:07;13.30;91.90
38456;DHT22;24237;50.106;20.014;2024-03-17T13:52:42;12.40;93.30
38456;DHT22;24237;50.106;20.014;2024-03-17T13:55:22;11.60;91.20
38456;DHT22;24237;50.106;20.014;2024-03-17T14:00:20;12.20;82.90
38456;DHT22;24237;50.106;20.014;2024-03-17T14:02:47;13.20;85.10
38456;DHT22;24237;50.106;20.014;2024-03-17T14:05:15;14.20;83.90
38456;DHT22;24237;50.106;20.014;2024-03-17T14:07:41;14.10;68.00
38456;DHT22;24237;50.106;20.014;2024-03-17T14:10:09;14.60;98.10
38456;DHT22;24237;50.106;20.014;2024-03-17T14:12:35;15.70;62.10
38456;DHT22;24237;50.106;20.014;2024-03-17T14:15:01;15.30;95.20
38456;DHT22;24237;50.106;20.014;2024-03-17T14:17:26;16.10;99.90
38456;DHT22;24237;50.106;20.014;2024-03-17T14:19:52;16.80;99.90
38456;DHT22;24237;50.106;20.014;2024-03-17T14:22:18;17.20;99.90
38456;DHT22;24237;50.106;20.014;2024-03-17T14:24:44;17.00;99.90
38456;DHT22;24237;50.106;20.014;2024-03-17T14:27:12;16.60;99.90
38456;DHT22;24237;50.106;20.014;2024-03-17T14:29:37;16.40;99.90
38456;DHT22;24237;50.106;20.014;2024-03-17T14:32:03;16.70;99.90
38456;DHT22;24237;50.106;20.014;2024-03-17T14:34:29;15.60;99.90
38456;DHT22;24237;50.106;20.014;2024-03-17T14:37:00;14.10;99.90
38456;DHT22;24237;50.106;20.014;2024-03-17T14:39:26;12.90;99.90
38456;DHT22;24237;50.106;20.014;2024-03-17T14:41:54;12.90;90.40
38456;DHT22;24237;50.106;20.014;2024-03-17T14:44:20;14.10;99.50
38456;DHT22;24237;50.106;20.014;2024-03-17T14:46:48;14.90;96.40
38456;DHT22;24237;50.106;20.014;2024-03-17T14:49:17;15.70;99.90
38456;DHT22;24237;50.106;20.014;2024-03-17T14:51:42;15.40;99.90
38456;DHT22;24237;50.106;20.014;2024-03-17T14:54:08;13.50;99.90
38456;DHT22;24237;50.106;20.014;2024-03-17T14:56:37;12.80;99.90
38456;DHT22;24237;50.106;20.014;2024-03-17T14:59:03;13.00;99.90
38456;DHT22;24237;50.106;20.014;2024-03-17T15:01:29;13.70;99.90
38456;DHT22;24237;50.106;20.014;2024-03-17T15:03:55;14.00;99.90
38456;DHT22;24237;50.106;20.014;2024-03-17T15:06:21;13.30;99.90
38456;DHT22;24237;50.106;20.014;2024-03-17T15:08:47;13.10;99.90
38456;DHT22;24237;50.106;20.014;2024-03-17T15:11:13;12.80;99.90
38456;DHT22;24237;50.106;20.014;2024-03-17T15:13:39;11.90;99.90
38456;DHT22;24237;50.106;20.014;2024-03-17T15:16:07;11.30;99.90
38456;DHT22;24237;50.106;20.014;2024-03-17T15:18:33;10.90;99.90
38456;DHT22;24237;50.106;20.014;2024-03-17T15:21:02;10.80;99.90
38456;DHT22;24237;50.106;20.014;2024-03-17T15:23:30;10.90;91.20
38456;DHT22;24237;50.106;20.014;2024-03-17T15:26:06;11.20;92.00
38456;DHT22;24237;50.106;20.014;2024-03-17T15:28:38;11.20;93.00
38456;DHT22;24237;50.106;20.014;2024-03-17T15:31:07;11.20;99.90
38456;DHT22;24237;50.106;20.014;2024-03-17T15:33:34;10.50;99.90
38456;DHT22;24237;50.106;20.014;2024-03-17T15:36:06;10.30;99.90
38456;DHT22;24237;50.106;20.014;2024-03-17T15:38:32;9.70;1.00
38456;DHT22;24237;50.106;20.014;2024-03-17T15:40:59;9.60;1.00
38456;DHT22;24237;50.106;20.014;2024-03-17T15:43:27;9.60;51.10
38456;DHT22;24237;50.106;20.014;2024-03-17T15:45:54;9.80;32.60
38456;DHT22;24237;50.106;20.014;2024-03-17T15:48:19;9.70;10.40
38456;DHT22;24237;50.106;20.014;2024-03-17T15:50:53;9.60;11.40
38456;DHT22;24237;50.106;20.014;2024-03-17T15:53:19;9.60;5.10
38456;DHT22;24237;50.106;20.014;2024-03-17T15:55:53;9.30;31.20
38456;DHT22;24237;50.106;20.014;2024-03-17T15:58:19;9.30;56.60
38456;DHT22;24237;50.106;20.014;2024-03-17T16:00:46;9.30;59.10
38456;DHT22;24237;50.106;20.014;2024-03-17T16:03:13;9.20;99.90